Time;durP1;ratioP1;P1;durP2;ratioP2;P2;SDS_P1;SDS_P2;PMS_P1;PMS_P2;Temp;Humidity;BMP_temperature;BMP_pressure;BME280_temperature;BME280_humidity;BME280_pressure;Samples;Min_cycle;Max_cycle;Signal;HPM_P1;HPM_P2
2022/01/28 00:02:09;;;;;;;19.80;12.38;;;3.50;85.40;;;1.82;92.47;96861.50;4937806;28;20062;-68
2022/01/28 00:04:35;;;;;;;19.35;11.30;;;3.50;85.50;;;1.82;93.05;96857.13;4958171;28;20121;-67
2022/01/28 00:07:00;;;;;;;17.13;11.18;;;3.50;85.50;;;1.82;93.16;96849.34;4945261;28;20051;-68
2022/01/28 00:09:26;;;;;;;17.35;11.25;;;3.60;85.30;;;1.84;93.04;96855.25;4925874;28;20507;-68
2022/01/28 00:11:52;;;;;;;17.38;10.82;;;3.50;85.20;;;1.84;93.28;96867.41;4911635;29;20047;-68
2022/01/28 00:14:28;;;;;;;15.52;10.38;;;3.50;85.40;;;1.82;93.25;96859.72;4949646;28;20039;-67
2022/01/28 00:38:47;;;;;;;17.33;10.35;;;3.40;86.30;;;1.78;93.16;96902.38;4938144;28;20181;-68
2022/01/28 00:41:13;;;;;;;18.70;11.63;;;3.40;86.20;;;1.75;94.02;96910.41;4954473;28;20035;-68
2022/01/28 00:43:38;;;;;;;15.52;10.50;;;3.30;86.60;;;1.75;93.94;96907.81;4942622;28;20042;-68
2022/01/28 00:46:04;;;;;;;16.83;11.30;;;3.40;86.60;;;1.75;93.72;96915.59;4928301;28;20047;-67
2022/01/28 00:48:30;;;;;;;16.50;11.02;;;3.40;86.50;;;1.73;94.25;96904.50;4939992;28;20131;-67
2022/01/28 00:50:56;;;;;;;17.45;10.85;;;3.40;86.60;;;1.73;94.36;96901.91;4928220;28;20236;-67
2022/01/28 00:53:21;;;;;;;16.20;11.20;;;3.30;86.70;;;1.71;94.04;96908.97;4957660;28;20057;-67
2022/01/28 00:55:47;;;;;;;16.60;10.63;;;3.30;87.10;;;1.68;94.56;96911.81;4941235;28;20043;-67
2022/01/28 00:58:13;;;;;;;16.70;11.07;;;3.30;87.10;;;1.66;94.27;96911.09;4923337;28;20058;-68
2022/01/28 01:00:39;;;;;;;16.88;10.75;;;3.30;86.80;;;1.65;94.55;96899.06;4926375;28;20067;-67
2022/01/28 01:03:04;;;;;;;15.02;10.48;;;3.30;86.90;;;1.64;94.83;96905.19;4940313;28;20129;-68
2022/01/28 01:05:34;;;;;;;16.02;10.70;;;3.40;86.60;;;1.63;94.74;96921.69;4925008;28;20043;-66
2022/01/28 01:08:01;;;;;;;15.23;10.25;;;3.20;87.00;;;1.59;94.97;96930.66;4939728;28;20055;-66
2022/01/28 01:10:28;;;;;;;16.40;10.00;;;3.10;87.20;;;1.57;95.08;96935.09;4958287;28;20043;-67
2022/01/28 01:12:54;;;;;;;16.48;10.90;;;3.10;86.90;;;1.56;94.94;96940.41;4926108;28;20047;-67
2022/01/28 01:15:20;;;;;;;15.18;10.07;;;3.10;87.00;;;1.52;94.59;96945.81;4926110;28;20045;-66
2022/01/28 01:23:23;;;;;;;18.63;10.45;;;3.10;87.40;;;1.47;95.68;96952.28;4943119;28;20126;-67
2022/01/28 01:25:54;;;;;;;16.83;10.45;;;3.10;87.40;;;1.46;95.25;96950.63;4945037;28;20098;-67
2022/01/28 01:28:22;;;;;;;16.13;10.25;;;3.10;87.30;;;1.49;95.23;96956.41;4929894;28;20043;-67
2022/01/28 01:30:48;;;;;;;12.73;8.85;;;3.10;87.00;;;1.51;95.60;96953.69;4967121;28;20043;-67
2022/01/28 01:33:19;;;;;;;13.88;9.02;;;3.20;86.90;;;1.50;95.01;96946.88;4969326;28;20067;-68
2022/01/28 01:35:44;;;;;;;14.27;8.93;;;3.20;87.00;;;1.51;94.85;96951.09;4950354;28;20035;-67
2022/01/28 01:38:11;;;;;;;13.32;8.60;;;3.10;86.80;;;1.52;95.57;96960.53;4936224;28;20066;-67
2022/01/28 01:40:52;;;;;;;14.65;8.95;;;3.10;86.80;;;1.50;95.20;96947.69;4948181;28;20038;-67
2022/01/28 01:54:00;;;;;;;12.48;7.63;;;3.20;85.80;;;1.60;94.57;96963.41;4948275;28;20178;-65
2022/01/28 01:56:27;;;;;;;13.40;7.97;;;3.20;85.70;;;1.58;94.75;96954.91;4925486;28;20537;-65
2022/01/28 01:58:53;;;;;;;12.55;8.35;;;3.30;85.60;;;1.58;93.78;96960.06;4934658;28;20047;-65
2022/01/28 02:01:18;;;;;;;11.60;7.57;;;3.20;85.50;;;1.57;93.80;96961.03;4954879;28;20412;-65
2022/01/28 02:03:44;;;;;;;13.25;7.78;;;3.20;85.40;;;1.57;94.07;96953.25;4956158;28;20043;-66
2022/01/28 02:06:10;;;;;;;14.13;8.60;;;3.30;85.10;;;1.57;93.53;96963.63;4926312;28;20050;-66
2022/01/28 02:08:36;;;;;;;15.05;8.43;;;3.20;85.50;;;1.56;93.75;96972.34;4932399;28;20039;-66
2022/01/28 02:11:02;;;;;;;14.27;8.50;;;3.10;85.30;;;1.54;93.69;96972.44;4952709;28;20035;-65
2022/01/28 02:13:29;;;;;;;12.88;8.15;;;3.10;85.10;;;1.57;93.50;96973.16;4948461;28;20046;-65
2022/01/28 02:15:56;;;;;;;13.75;8.45;;;3.20;85.00;;;1.58;93.64;96975.63;4925561;28;20055;-65
2022/01/28 02:18:22;;;;;;;12.68;8.10;;;3.20;84.80;;;1.57;93.60;96971.38;4904162;28;20047;-65
2022/01/28 02:20:50;;;;;;;14.43;8.82;;;3.10;85.00;;;1.58;93.54;96988.59;4910380;28;20058;-65
2022/01/28 02:23:17;;;;;;;13.30;8.55;;;3.20;85.20;;;1.58;93.71;96985.19;4903935;28;20454;-65
2022/01/28 02:25:43;;;;;;;14.05;8.18;;;3.10;85.20;;;1.59;93.66;96981.69;4955882;28;20039;-66
2022/01/28 02:28:12;;;;;;;13.20;8.40;;;3.20;85.00;;;1.59;93.27;96977.31;4921480;28;20090;-66
2022/01/28 02:30:37;;;;;;;13.57;8.15;;;3.20;84.80;;;1.60;93.36;96985.94;4909575;28;20026;-66
2022/01/28 02:33:13;;;;;;;13.95;8.32;;;3.30;84.70;;;1.60;93.34;96984.16;4920264;28;20330;-66
2022/01/28 02:35:41;;;;;;;10.32;7.45;;;3.30;84.80;;;1.61;93.33;96985.00;4925879;28;20114;-66
2022/01/28 02:38:07;;;;;;;11.32;8.45;;;3.30;84.50;;;1.62;93.04;96992.66;4940983;28;20468;-65
2022/01/28 02:40:33;;;;;;;12.10;8.35;;;3.30;84.60;;;1.61;93.17;96997.97;4930188;28;20128;-66
2022/01/28 02:45:47;;;;;;;12.32;7.80;;;3.20;84.80;;;1.63;92.87;96993.47;4957256;28;20494;-66
2022/01/28 02:48:18;;;;;;;12.45;8.43;;;3.30;84.60;;;1.63;92.96;96989.13;4953197;28;20043;-65
2022/01/28 02:51:01;;;;;;;12.88;8.30;;;3.20;84.30;;;1.62;93.00;97007.38;4948640;28;20035;-65
2022/01/28 02:53:48;;;;;;;13.30;7.75;;;3.20;84.40;;;1.64;93.24;96995.97;4936375;28;20035;-65
2022/01/28 02:56:21;;;;;;;13.10;8.32;;;3.30;84.30;;;1.64;92.50;97003.75;4950665;28;20055;-65
2022/01/28 02:58:47;;;;;;;11.20;7.55;;;3.30;84.00;;;1.64;92.63;97000.31;4922962;28;20042;-66
2022/01/28 03:01:15;;;;;;;14.85;8.27;;;3.30;84.00;;;1.64;92.56;96998.56;4904006;28;20118;-65
2022/01/28 03:03:42;;;;;;;13.82;8.38;;;3.40;84.00;;;1.64;92.78;97010.69;4907952;28;20031;-66
2022/01/28 03:06:08;;;;;;;12.73;7.68;;;3.30;84.00;;;1.64;92.12;97008.94;4963616;28;20113;-65
2022/01/28 03:08:35;;;;;;;15.43;8.80;;;3.30;84.00;;;1.61;92.69;97011.75;4949802;28;20054;-65
2022/01/28 03:11:29;;;;;;;13.02;8.75;;;3.30;84.00;;;1.61;92.39;97022.13;4955634;28;20038;-65
2022/01/28 03:16:41;;;;;;;13.05;8.30;;;3.30;84.30;;;1.57;92.63;97020.66;4943611;28;20042;-66
2022/01/28 03:19:17;;;;;;;12.73;8.18;;;3.20;84.80;;;1.56;92.85;97024.19;4953657;28;20127;-66
2022/01/28 03:21:53;;;;;;;12.77;7.60;;;3.10;85.30;;;1.49;93.19;97028.16;4937896;28;20040;-66
2022/01/28 03:24:19;;;;;;;13.68;7.78;;;3.00;86.00;;;1.44;93.64;97025.91;4923087;28;20419;-66
2022/01/28 03:26:46;;;;;;;12.82;8.30;;;3.00;86.40;;;1.41;93.68;97025.31;4917894;29;20148;-65
2022/01/28 03:29:12;;;;;;;15.07;9.00;;;3.00;86.20;;;1.36;94.36;97032.56;4943550;28;20034;-65
2022/01/28 03:31:38;;;;;;;16.73;9.95;;;2.90;86.40;;;1.29;94.30;97026.16;4944681;28;20062;-66
2022/01/28 03:34:04;;;;;;;19.55;10.80;;;2.80;86.70;;;1.23;93.95;97043.00;4931930;28;20504;-65
2022/01/28 03:36:30;;;;;;;15.25;10.00;;;2.80;87.00;;;1.22;94.57;97036.97;4942412;28;20031;-66
2022/01/28 03:38:56;;;;;;;16.50;10.27;;;2.90;86.80;;;1.21;95.18;97050.88;4920611;28;20048;-66
2022/01/28 03:41:23;;;;;;;18.02;10.27;;;2.90;87.00;;;1.23;95.46;97054.19;4953152;28;20035;-64
2022/01/28 03:43:49;;;;;;;19.80;11.52;;;3.00;86.90;;;1.23;95.45;97043.81;4914277;29;20042;-66
2022/01/28 03:46:15;;;;;;;15.27;9.93;;;3.00;87.00;;;1.26;95.58;97047.94;4964875;28;20055;-69
2022/01/28 03:48:40;;;;;;;16.02;10.27;;;3.00;86.90;;;1.29;95.70;97052.09;4911938;29;20070;-72
2022/01/28 03:51:06;;;;;;;19.05;10.75;;;3.00;86.90;;;1.30;95.41;97051.16;4917339;29;20507;-68
2022/01/28 03:53:32;;;;;;;17.85;10.48;;;3.10;86.70;;;1.32;95.72;97059.66;4917039;28;20039;-68
2022/01/28 03:55:58;;;;;;;18.35;10.23;;;3.00;86.50;;;1.33;95.31;97056.94;4930330;28;20138;-66
2022/01/28 03:58:25;;;;;;;15.80;9.95;;;3.10;86.50;;;1.35;95.78;97072.38;4926235;28;20042;-66
2022/01/28 04:00:51;;;;;;;16.48;10.50;;;3.10;86.40;;;1.38;95.38;97069.59;4921205;29;20040;-67
2022/01/28 04:13:46;;;;;;;15.93;8.82;;;3.10;85.80;;;1.45;94.88;97070.81;4923753;28;20039;-67
2022/01/28 04:19:01;;;;;;;14.35;7.93;;;3.20;85.50;;;1.49;94.58;97069.66;4944952;28;20050;-66
2022/01/28 04:21:29;;;;;;;13.75;8.95;;;3.30;85.20;;;1.50;94.78;97076.50;4933088;28;20122;-66
2022/01/28 04:23:55;;;;;;;13.55;8.65;;;3.30;85.00;;;1.50;94.70;97077.31;4933122;28;20190;-66
2022/01/28 04:26:20;;;;;;;12.98;8.20;;;3.30;85.00;;;1.53;94.50;97090.06;4900565;29;20122;-66
2022/01/28 04:28:46;;;;;;;13.25;8.27;;;3.30;84.80;;;1.55;94.42;97092.53;4916657;29;20509;-66
2022/01/28 04:31:12;;;;;;;12.88;9.10;;;3.30;84.60;;;1.56;94.10;97091.59;4917090;28;20388;-66
2022/01/28 04:33:37;;;;;;;15.63;8.70;;;3.30;84.80;;;1.57;94.21;97092.44;4932759;28;20090;-66
2022/01/28 04:36:05;;;;;;;14.13;8.30;;;3.20;84.90;;;1.57;93.85;97097.63;4948625;28;20039;-66
2022/01/28 04:38:52;;;;;;;12.70;7.93;;;3.20;85.00;;;1.58;94.09;97089.72;4916924;29;20130;-66
2022/01/28 04:42:11;;;;;;;14.30;8.38;;;3.30;84.70;;;1.60;93.91;97093.06;4935017;28;20039;-67
2022/01/28 04:44:15;;;;;;;12.80;8.30;;;3.30;84.60;;;1.62;94.28;97095.56;4937868;28;20134;-66
2022/01/28 04:46:51;;;;;;;16.90;10.68;;;3.40;84.70;;;1.63;94.43;97092.84;4951459;28;20084;-66
2022/01/28 04:49:29;;;;;;;23.23;13.95;;;3.40;85.00;;;1.65;94.41;97090.97;4947615;28;20044;-66
2022/01/28 05:28:39;;;;;;;13.25;8.13;;;3.40;84.80;;;1.60;93.49;97119.00;4937013;28;20080;-66
2022/01/28 05:31:05;;;;;;;13.32;8.35;;;3.20;85.10;;;1.57;93.94;97134.75;4920725;29;20463;-66
2022/01/28 05:33:30;;;;;;;13.85;8.38;;;3.10;85.40;;;1.54;93.83;97140.16;4935535;28;20164;-66
2022/01/28 05:35:56;;;;;;;15.65;8.70;;;3.10;85.60;;;1.50;94.02;97149.09;4952049;28;20114;-66
2022/01/28 05:38:22;;;;;;;14.85;8.77;;;3.10;85.90;;;1.44;94.70;97149.53;4951857;28;20047;-66
2022/01/28 05:40:47;;;;;;;24.00;12.98;;;3.00;86.40;;;1.42;94.64;97162.59;4920299;29;20095;-66
2022/01/28 05:43:13;;;;;;;26.38;17.05;;;3.00;86.40;;;1.38;94.92;97168.09;4935646;28;20043;-66
2022/01/28 05:45:40;;;;;;;16.13;9.90;;;2.90;86.90;;;1.34;94.97;97164.88;4935670;28;20499;-66
2022/01/28 05:48:06;;;;;;;15.07;9.43;;;2.90;86.90;;;1.31;95.18;97165.09;4943910;28;20046;-66
2022/01/28 05:50:32;;;;;;;15.02;9.23;;;2.90;86.80;;;1.28;95.36;97175.66;4925013;28;20036;-66
2022/01/28 05:52:57;;;;;;;16.65;9.90;;;2.90;86.90;;;1.28;95.39;97180.03;4940820;28;20050;-65
2022/01/28 05:55:24;;;;;;;14.18;9.32;;;2.90;86.80;;;1.22;95.61;97183.88;4950200;28;20035;-66
2022/01/28 05:57:50;;;;;;;15.07;9.65;;;2.70;86.90;;;1.18;95.37;97180.66;4951645;28;20031;-66
2022/01/28 06:00:17;;;;;;;13.95;8.95;;;2.70;86.60;;;1.12;95.21;97190.59;4923177;28;20534;-65
2022/01/28 06:02:44;;;;;;;12.77;8.20;;;2.60;86.90;;;1.07;95.54;97193.50;4935778;28;20122;-65
2022/01/28 06:05:11;;;;;;;13.93;8.45;;;2.60;87.00;;;1.02;95.88;97184.38;4935560;28;20118;-65
2022/01/28 06:07:41;;;;;;;16.75;9.43;;;2.60;87.00;;;0.97;95.32;97194.25;4919736;29;20031;-66
2022/01/28 06:10:09;;;;;;;15.02;9.10;;;2.50;87.00;;;0.91;95.88;97187.72;4963227;28;20462;-65
2022/01/28 06:12:42;;;;;;;12.80;8.35;;;2.50;87.10;;;0.84;96.79;97197.63;4924332;28;20039;-65
2022/01/28 06:15:09;;;;;;;13.15;8.73;;;2.40;87.70;;;0.83;96.13;97215.88;4931977;28;20036;-66
2022/01/28 06:17:35;;;;;;;14.25;9.40;;;2.50;87.60;;;0.82;96.64;97214.22;4931585;28;20035;-66
2022/01/28 06:20:02;;;;;;;19.20;11.77;;;2.40;87.70;;;0.80;96.99;97211.72;4936146;28;20118;-65
2022/01/28 06:22:28;;;;;;;17.48;11.80;;;2.50;88.10;;;0.82;97.40;97222.81;4916438;28;20036;-63
2022/01/28 06:24:54;;;;;;;22.73;11.88;;;2.50;88.20;;;0.83;97.20;97210.69;4932351;28;20064;-65
2022/01/28 06:27:19;;;;;;;31.67;10.35;;;2.60;88.10;;;0.86;97.67;97218.25;4932878;28;20118;-65
2022/01/28 06:29:45;;;;;;;16.63;10.15;;;2.60;87.90;;;0.89;97.53;97220.63;4935333;28;20030;-65
2022/01/28 06:32:11;;;;;;;15.23;9.93;;;2.60;87.60;;;0.90;96.73;97224.88;4931267;28;20579;-65
2022/01/28 06:34:38;;;;;;;17.52;10.07;;;2.60;87.50;;;0.88;97.49;97221.56;4957927;28;20504;-66
2022/01/28 06:37:05;;;;;;;13.77;8.75;;;2.60;87.60;;;0.90;97.32;97222.28;4951024;28;20692;-65
2022/01/28 06:39:32;;;;;;;14.75;8.60;;;2.60;87.60;;;0.91;97.01;97229.16;4950346;28;20046;-66
2022/01/28 06:42:01;;;;;;;14.88;10.35;;;2.60;87.20;;;0.93;97.69;97227.28;4938842;28;20503;-65
2022/01/28 06:44:27;;;;;;;21.13;13.43;;;2.60;87.10;;;0.96;97.43;97228.84;4931436;28;20039;-65
2022/01/28 06:46:53;;;;;;;13.00;9.00;;;2.70;87.30;;;1.00;97.33;97222.53;4931875;28;20044;-66
2022/01/28 06:49:19;;;;;;;15.80;9.00;;;2.70;86.80;;;1.03;96.95;97217.13;4932826;28;20496;-65
2022/01/28 06:51:45;;;;;;;12.55;7.45;;;2.80;86.70;;;1.04;96.91;97213.63;4952177;28;20031;-66
2022/01/28 06:54:10;;;;;;;11.65;7.65;;;2.80;86.30;;;1.03;96.46;97215.38;4935712;28;20499;-65
2022/01/28 06:56:36;;;;;;;12.38;7.93;;;2.80;86.20;;;1.02;96.44;97215.47;4902564;29;20031;-65
2022/01/28 06:59:02;;;;;;;12.70;7.93;;;2.70;86.10;;;1.01;96.41;97216.41;4934341;28;20130;-65
2022/01/28 07:01:28;;;;;;;13.65;7.85;;;2.70;86.30;;;1.01;96.14;97230.19;4934441;28;20035;-65
2022/01/28 07:03:54;;;;;;;13.45;7.97;;;2.80;86.20;;;1.02;96.32;97237.03;4903420;29;20058;-66
2022/01/28 07:06:21;;;;;;;10.52;6.97;;;2.80;86.20;;;1.04;96.17;97235.16;4934612;28;20071;-67
2022/01/28 07:08:47;;;;;;;13.15;7.68;;;2.90;86.10;;;1.06;96.68;97238.47;4934494;28;20082;-67
2022/01/28 07:11:13;;;;;;;11.85;8.00;;;2.90;86.00;;;1.07;96.31;97244.50;4899357;28;20519;-67
2022/01/28 07:13:38;;;;;;;12.57;7.88;;;2.80;85.80;;;1.08;96.34;97249.56;4947126;28;20117;-67
2022/01/28 07:16:05;;;;;;;11.60;7.20;;;2.80;86.10;;;1.11;96.11;97261.50;4947207;28;20086;-67
2022/01/28 07:18:30;;;;;;;12.13;7.50;;;2.90;86.00;;;1.09;96.58;97264.19;4960358;28;20047;-67
2022/01/28 07:20:56;;;;;;;12.40;7.47;;;2.80;86.80;;;1.08;96.27;97269.47;4918930;29;20392;-67
2022/01/28 07:23:22;;;;;;;13.43;7.80;;;2.70;87.00;;;1.06;97.18;97268.75;4933468;28;20548;-67
2022/01/28 07:25:48;;;;;;;12.05;7.47;;;2.70;87.10;;;1.01;96.67;97269.06;4933782;28;20671;-67
2022/01/28 07:28:13;;;;;;;10.82;7.40;;;2.60;87.30;;;1.01;96.45;97269.06;4954542;28;20054;-67
2022/01/28 07:30:39;;;;;;;12.25;7.60;;;2.60;87.40;;;1.01;97.23;97276.84;4966196;28;20066;-66
2022/01/28 07:33:07;;;;;;;13.02;7.32;;;2.70;87.10;;;0.99;96.99;97278.69;4950484;28;20039;-66
2022/01/28 07:35:33;;;;;;;12.35;6.95;;;2.60;87.00;;;0.96;97.24;97268.53;4918438;28;20035;-67
2022/01/28 07:37:59;;;;;;;11.93;7.40;;;2.70;87.10;;;0.97;97.40;97283.16;4918120;29;20043;-67
2022/01/28 07:40:25;;;;;;;12.98;7.60;;;2.60;86.90;;;0.95;97.22;97276.41;4934108;28;20173;-66
2022/01/28 07:42:50;;;;;;;10.90;8.10;;;2.60;86.90;;;0.94;97.28;97280.75;4933940;28;20035;-66
2022/01/28 07:45:16;;;;;;;12.52;7.45;;;2.60;87.00;;;0.93;96.83;97279.09;4917654;28;20070;-67
2022/01/28 07:47:43;;;;;;;11.75;7.68;;;2.60;87.20;;;0.93;97.46;97279.09;4902035;29;20039;-66
2022/01/28 07:50:09;;;;;;;13.05;7.15;;;2.60;87.10;;;0.93;97.53;97278.28;4934271;28;20418;-66
2022/01/28 07:52:35;;;;;;;13.18;7.57;;;2.60;87.00;;;0.92;97.44;97285.22;4949677;28;20170;-66
2022/01/28 07:55:01;;;;;;;12.63;8.10;;;2.70;87.10;;;0.92;97.59;97282.63;4958635;28;20122;-66
2022/01/28 07:57:27;;;;;;;14.32;8.13;;;2.60;87.00;;;0.92;97.12;97274.84;4959022;28;20043;-65
2022/01/28 07:59:52;;;;;;;12.82;7.35;;;2.70;86.80;;;0.95;97.50;97281.59;4933479;28;20084;-65
2022/01/28 08:02:18;;;;;;;11.65;7.72;;;2.70;86.60;;;0.96;97.77;97284.09;4917991;29;20059;-65
2022/01/28 08:04:44;;;;;;;14.38;8.00;;;2.80;86.30;;;0.99;97.25;97278.69;4933414;28;20078;-66
2022/01/28 08:07:10;;;;;;;14.52;7.40;;;2.90;86.20;;;1.06;97.28;97279.94;4901757;29;20039;-66
2022/01/28 08:09:35;;;;;;;10.68;7.25;;;3.10;85.90;;;1.15;97.81;97278.53;4917447;29;20468;-65
2022/01/28 08:12:01;;;;;;;13.30;7.10;;;3.20;85.50;;;1.20;97.27;97282.47;4962316;28;20492;-65
2022/01/28 08:14:30;;;;;;;10.63;6.85;;;3.10;85.50;;;1.28;97.28;97299.25;4905187;29;20083;-65
2022/01/28 08:16:57;;;;;;;12.15;7.28;;;3.20;85.20;;;1.33;97.39;97294.59;4919362;29;20053;-65
2022/01/28 08:19:22;;;;;;;14.20;7.28;;;3.20;85.00;;;1.39;96.69;97296.78;4964620;28;20392;-65
2022/01/28 08:21:48;;;;;;;13.25;6.85;;;3.30;84.70;;;1.46;96.97;97303.22;4949445;28;20034;-66
2022/01/28 08:24:14;;;;;;;15.10;7.47;;;3.50;84.20;;;1.52;96.56;97306.22;4965023;28;20292;-65
2022/01/28 08:26:39;;;;;;;10.52;6.45;;;3.60;83.80;;;1.61;95.46;97316.91;4947609;28;20044;-65
2022/01/28 08:29:06;;;;;;;11.30;6.70;;;3.60;83.50;;;1.68;95.84;97310.38;4948588;28;20047;-65
2022/01/28 08:31:32;;;;;;;13.55;6.70;;;3.80;83.20;;;1.75;95.67;97317.63;4914235;28;20043;-66
2022/01/28 08:33:58;;;;;;;11.07;6.10;;;3.70;82.90;;;1.83;94.84;97322.31;4914498;28;20059;-66
2022/01/28 08:36:23;;;;;;;13.60;6.40;;;3.80;82.60;;;1.90;95.40;97326.13;4901065;29;20156;-65
2022/01/28 08:38:53;;;;;;;11.52;5.72;;;3.90;82.30;;;1.95;94.33;97320.63;4954319;28;20315;-65
2022/01/28 08:41:19;;;;;;;11.10;5.97;;;3.70;82.00;;;1.95;93.86;97320.63;4968158;28;20055;-65
2022/01/28 08:43:45;;;;;;;12.93;5.38;;;3.60;82.50;;;1.93;93.81;97312.13;4935944;28;20039;-65
2022/01/28 08:46:11;;;;;;;10.52;6.07;;;3.60;82.70;;;1.93;93.28;97312.94;4917991;28;20408;-65
2022/01/28 08:48:37;;;;;;;9.48;5.28;;;3.60;82.30;;;1.90;92.80;97320.94;4919598;29;20043;-65
2022/01/28 08:51:02;;;;;;;11.75;5.10;;;3.50;82.00;;;1.92;92.92;97318.25;4918185;29;20456;-67
2022/01/28 08:53:28;;;;;;;9.85;5.15;;;3.60;82.10;;;1.94;92.50;97329.34;4958834;28;20058;-66
2022/01/28 08:55:54;;;;;;;10.52;5.07;;;3.70;81.90;;;1.97;92.07;97339.50;4955588;28;20412;-65
2022/01/28 08:58:19;;;;;;;9.80;5.10;;;3.90;81.40;;;2.04;92.57;97330.38;4936503;28;20596;-66
2022/01/28 09:00:48;;;;;;;8.57;4.28;;;4.10;80.60;;;2.12;91.74;97328.06;4952911;28;20035;-66
2022/01/28 09:03:15;;;;;;;6.75;4.45;;;4.10;79.20;;;2.19;91.66;97329.31;4937068;28;20031;-66
2022/01/28 09:05:41;;;;;;;9.05;4.53;;;4.30;78.30;;;2.27;91.22;97329.63;4936460;28;20498;-66
2022/01/28 09:08:09;;;;;;;9.43;4.93;;;4.50;77.80;;;2.36;90.79;97336.75;4921317;29;20119;-66
2022/01/28 09:10:37;;;;;;;8.27;4.38;;;4.80;77.20;;;2.49;90.85;97334.13;4936751;28;20122;-66
2022/01/28 09:15:37;;;;;;;9.25;4.70;;;4.80;76.30;;;2.73;89.48;97342.78;4936299;28;20050;-66
2022/01/28 09:18:03;;;;;;;8.25;4.65;;;5.10;76.10;;;2.87;89.76;97336.56;4921330;29;20364;-65
2022/01/28 09:20:30;;;;;;;12.20;5.05;;;5.30;75.20;;;2.98;89.42;97331.44;4936447;28;20114;-65
2022/01/28 09:22:57;;;;;;;9.57;4.43;;;5.40;75.30;;;3.12;88.99;97340.81;4920826;29;20043;-66
2022/01/28 09:25:22;;;;;;;15.48;6.68;;;5.50;74.80;;;3.21;89.00;97339.31;4951307;28;20035;-66
2022/01/28 09:27:48;;;;;;;10.20;3.97;;;5.40;75.20;;;3.24;87.54;97339.91;4950478;28;20091;-65
2022/01/28 09:30:14;;;;;;;7.60;3.83;;;5.10;74.30;;;3.18;86.83;97339.56;4952075;28;20039;-66
2022/01/28 09:32:40;;;;;;;9.02;3.97;;;4.80;74.90;;;3.08;86.46;97340.22;4951947;28;20395;-65
2022/01/28 09:35:06;;;;;;;8.15;3.70;;;4.60;75.50;;;3.02;86.30;97351.06;4951918;28;20043;-66
2022/01/28 09:37:33;;;;;;;10.20;4.38;;;4.60;76.20;;;2.97;86.20;97360.97;4934028;28;20126;-66
2022/01/28 09:40:00;;;;;;;8.48;4.13;;;4.60;76.50;;;2.93;86.10;97359.50;4917417;28;20042;-65
2022/01/28 09:42:29;;;;;;;8.27;3.58;;;4.60;76.70;;;2.95;86.73;97362.84;4923777;28;20301;-66
2022/01/28 09:44:55;;;;;;;10.57;3.97;;;4.70;77.10;;;2.93;86.42;97364.69;4966047;28;20043;-66
2022/01/28 09:47:21;;;;;;;8.40;3.50;;;4.70;76.50;;;2.88;86.03;97363.38;4934755;28;20031;-66
2022/01/28 09:49:48;;;;;;;11.05;3.95;;;4.40;75.90;;;2.85;86.20;97361.84;4917518;29;20051;-65
2022/01/28 09:52:13;;;;;;;8.38;3.42;;;4.50;76.30;;;2.84;85.27;97373.16;4917414;28;20146;-65
2022/01/28 09:54:39;;;;;;;8.40;4.28;;;4.50;76.10;;;2.86;85.56;97375.66;4936217;28;20030;-65
2022/01/28 09:57:08;;;;;;;6.38;3.50;;;4.70;76.50;;;2.85;85.63;97369.63;4947000;28;20506;-66
2022/01/28 09:59:34;;;;;;;8.95;3.83;;;4.60;76.10;;;2.88;85.41;97369.41;4956582;28;20271;-65
2022/01/28 10:01:59;;;;;;;8.45;4.18;;;4.70;75.30;;;2.94;85.79;97363.78;4920434;29;20064;-66
2022/01/28 10:04:25;;;;;;;9.00;3.83;;;5.10;75.60;;;3.04;85.12;97369.97;4919721;29;20054;-66
2022/01/28 10:06:51;;;;;;;7.88;3.65;;;5.10;73.80;;;3.13;85.31;97363.25;4904207;29;20044;-65
2022/01/28 10:09:18;;;;;;;7.35;3.67;;;5.30;73.70;;;3.17;84.98;97358.66;4919552;28;20043;-65
2022/01/28 10:11:47;;;;;;;7.45;3.35;;;5.10;73.80;;;3.19;84.33;97362.84;4936256;28;20031;-65
2022/01/28 10:14:18;;;;;;;10.10;3.83;;;5.10;74.30;;;3.23;84.63;97373.84;4905071;29;20050;-65
2022/01/28 10:17:02;;;;;;;8.27;3.35;;;5.10;74.20;;;3.26;83.53;97369.25;4936460;28;20035;-65
2022/01/28 10:19:40;;;;;;;8.60;3.67;;;5.10;73.60;;;3.28;83.00;97367.34;4936178;28;20095;-66
2022/01/28 10:22:20;;;;;;;7.97;3.40;;;5.10;73.10;;;3.30;82.86;97364.63;4951819;28;20093;-66
2022/01/28 10:24:46;;;;;;;5.88;3.33;;;5.10;73.20;;;3.27;83.65;97370.06;4919991;29;20412;-66
2022/01/28 10:27:14;;;;;;;8.10;3.67;;;4.90;73.50;;;3.26;83.14;97364.03;4935088;28;20086;-66
2022/01/28 10:29:42;;;;;;;8.68;3.50;;;5.10;73.90;;;3.32;83.23;97370.53;4935764;28;20406;-66
2022/01/28 10:32:09;;;;;;;9.90;3.90;;;5.30;73.50;;;3.36;83.27;97377.19;4935697;28;20115;-65
2022/01/28 10:34:40;;;;;;;11.63;4.00;;;5.30;72.80;;;3.43;82.47;97369.78;4918973;29;20559;-65
2022/01/28 10:37:21;;;;;;;10.90;3.38;;;5.50;72.80;;;3.49;82.23;97364.94;4919925;29;20136;-66
2022/01/28 10:39:59;;;;;;;8.75;4.18;;;5.40;72.40;;;3.53;82.72;97358.56;4966791;28;20035;-66
2022/01/28 10:42:40;;;;;;;8.80;4.20;;;5.50;72.80;;;3.55;81.31;97359.28;4935947;28;20079;-66
2022/01/28 10:45:13;;;;;;;8.88;4.13;;;5.40;72.20;;;3.60;81.92;97366.72;4950706;28;20046;-66
2022/01/28 10:47:43;;;;;;;9.23;3.65;;;5.60;72.10;;;3.71;81.92;97378.94;4919873;28;20118;-66
2022/01/28 10:50:32;;;;;;;9.40;3.17;;;6.10;70.20;;;3.83;80.09;97362.41;4919639;29;20047;-66
2022/01/28 10:53:11;;;;;;;5.63;2.63;;;6.10;69.00;;;3.88;79.34;97366.34;4935415;28;20542;-66
2022/01/28 10:55:44;;;;;;;6.38;3.00;;;5.90;68.80;;;3.93;80.11;97352.97;4935531;28;20043;-66
2022/01/28 10:58:13;;;;;;;7.38;2.90;;;5.90;69.70;;;4.02;80.43;97359.22;4968566;28;20031;-66
2022/01/28 11:00:45;;;;;;;11.82;3.75;;;6.20;68.70;;;4.09;79.60;97352.63;4935590;28;20031;-66
2022/01/28 11:03:13;;;;;;;9.57;3.53;;;6.10;68.60;;;4.34;80.59;97356.75;4900714;29;20408;-66
2022/01/28 11:05:39;;;;;;;7.28;3.25;;;7.30;64.50;;;4.54;79.57;97363.84;4930691;29;20019;-66
2022/01/28 11:08:13;;;;;;;12.10;6.38;;;7.40;65.30;;;4.84;78.66;97356.19;4947128;28;20519;-66
2022/01/28 11:10:43;;;;;;;15.93;9.38;;;8.00;62.60;;;4.97;77.28;97365.63;4947342;28;20372;-64
2022/01/28 11:13:08;;;;;;;8.93;3.45;;;7.40;62.90;;;4.95;77.16;97363.16;4960035;28;20048;-65
2022/01/28 11:15:35;;;;;;;11.60;5.63;;;6.90;65.20;;;4.90;77.27;97366.13;4929631;28;20035;-65
2022/01/28 11:18:03;;;;;;;7.38;2.78;;;6.80;66.00;;;4.84;76.37;97366.63;4966216;28;20143;-65
2022/01/28 11:20:34;;;;;;;9.20;3.00;;;6.50;65.60;;;4.70;74.95;97359.06;4950205;28;20027;-65
2022/01/28 11:23:23;;;;;;;6.53;2.30;;;6.10;65.80;;;4.55;74.70;97365.50;4935043;28;20031;-65
2022/01/28 11:26:23;;;;;;;7.95;2.95;;;6.10;66.80;;;4.46;74.51;97366.22;4930884;28;20034;-65
2022/01/28 11:28:50;;;;;;;8.48;2.83;;;6.00;67.00;;;4.35;75.54;97369.66;4927314;28;20149;-65
2022/01/28 11:31:42;;;;;;;8.23;2.47;;;5.90;67.70;;;4.25;74.72;97366.94;4932013;28;20046;-65
2022/01/28 11:34:27;;;;;;;8.43;2.58;;;5.90;68.10;;;4.12;75.15;97375.81;4934368;28;20050;-65
2022/01/28 11:37:17;;;;;;;8.32;2.15;;;5.60;68.30;;;3.99;74.94;97373.31;4932237;28;20040;-65
2022/01/28 11:39:46;;;;;;;7.43;2.40;;;5.40;68.70;;;3.93;76.14;97369.41;4933025;28;20487;-65
2022/01/28 11:42:24;;;;;;;6.90;2.13;;;5.60;69.30;;;3.91;76.70;97370.47;4950062;28;20043;-65
2022/01/28 11:44:55;;;;;;;8.20;2.45;;;5.50;68.80;;;3.86;76.54;97367.41;4927942;28;20570;-65
2022/01/28 11:47:31;;;;;;;5.65;2.13;;;5.60;69.00;;;3.83;76.20;97365.00;4930085;28;20035;-65
2022/01/28 11:50:00;;;;;;;6.28;2.10;;;5.50;68.80;;;3.79;76.34;97372.22;4909529;29;20054;-65
2022/01/28 11:52:37;;;;;;;7.60;2.53;;;5.40;69.70;;;3.78;76.60;97365.34;4933529;28;20035;-64
2022/01/28 11:55:30;;;;;;;7.45;2.65;;;5.40;70.00;;;3.78;76.52;97357.53;4966072;28;20336;-65
2022/01/28 11:58:05;;;;;;;5.97;1.98;;;5.50;69.90;;;3.81;76.38;97356.47;4960713;28;20109;-65
2022/01/28 12:00:50;;;;;;;5.43;2.22;;;5.60;69.20;;;3.84;77.56;97348.44;4955927;28;20304;-65
2022/01/28 12:03:24;;;;;;;10.50;6.30;;;5.70;69.30;;;3.92;77.28;97357.34;4948909;28;20409;-65
2022/01/28 12:06:08;;;;;;;10.77;4.95;;;5.90;69.20;;;4.12;77.13;97363.63;4932947;28;20521;-65
2022/01/28 12:08:36;;;;;;;11.48;5.88;;;6.70;67.20;;;4.36;77.48;97368.72;4933327;28;20047;-65